LIBV

Gioia Del Colle Airport

Gioia Del Colle, Italy
TAF LIBV 260500Z 2606/2615 VRB02KT CAVOK BECMG 2609/2612 17009KT
Issued Valid From Valid To
Apr-26 @ 05:00 UTC
(60 minutes ago)
Apr-26 @ 06:00 UTC
(a few seconds ago)
Apr-26 @ 15:00 UTC
(in 9 hours)
Apr-26 @ 06:00 to Apr-26 @ 09:00
TAF LIBV 260500Z 2606/2615 VRB02KT CAVOK
Wind Visibility Clouds Conditions
Variable at 2 knots 10,000+ meters
  • No significant clouds
Becoming Apr-26 @ 09:00 to Apr-26 @ 15:00
BECMG 2609/2612 17009KT
Wind Visibility Clouds Conditions
170° at 9 knots 10,000+ meters
  • No significant clouds
TAF LIBV 260500Z 2606/2615 VRB02KT CAVOK BECMG 2609/2612 17009KT
Issued Apr-26 @ 05:00 UTC
(60 minutes ago)
Valid From Apr-26 @ 06:00 UTC
(a few seconds ago)
Valid To Apr-26 @ 15:00 UTC
(in 9 hours)
Apr-26 @ 06:00 - Apr-26 @ 09:00
Wind Visibility
Variable at 2 knots 10,000+ meters
Clouds
  • No significant clouds
Conditions
Becoming Apr-26 @ 09:00 - Apr-26 @ 15:00
Wind Visibility
170° at 9 knots 10,000+ meters
Clouds
  • No significant clouds
Conditions